Tiempo atmosférico en la estación meteorológica de Huesca Aeropuerto, Huesca (541 m.)



Fecha
DESCASC
Temp. máxima en grados centígrados (hora)
DESCASC
Temp. mínima en grados centígrados (hora)
DESCASC
Temp. media en grados centígrados
DESCASC
Racha de viento máxima en m/sg (hora)
DESCASC
Velocidad máxima media en intervalos de 10 minutos(hora)
DESCASC
Precipitaciones diarias en mm
DESCASC
Precipitaciones de 00:00 a 06:00 en mm
DESCASC
Precipitaciones de 06:00 a 12:00 en mm
DESCASC
Precipitaciones de 12:00 a 18:00 en mm
DESCASC
Precipitaciones de 18:00 a 24:00 en mm
DESCASC
20-10-2019 16.5 (00:00) 8.9 (23:59) 12.7 7.22 (11:10) 4.44 (01:00) 3.6 3.6 0 0 0
19-10-2019 20 (16:50) 13.1 (07:50) 16.6 6.67 (23:00) 4.44 (22:50) 0 0 0 0 0
18-10-2019 19.3 (15:50) 11.6 (02:00) 15.4 4.44 (07:30) 3.06 (23:59) 3 0 2.8 0.2 0
17-10-2019 18.7 (17:10) 10.8 (00:00) 14.8 3.89 (18:00) 2.5 (08:10) 0.4 0 0.4 0 0
16-10-2019 18.8 (15:50) 8.3 (00:00) 13.5 4.72 (13:10) 2.22 (12:40) 0 0 0 0 0
15-10-2019 16.8 (16:40) 7.2 (00:00) 12 9.17 (14:30) 3.89 (14:00) 0.4 0.4 0 0 0
14-10-2019 19.2 (16:10) 11.4 (00:00) 15.3 11.39 (15:40) 7.5 (09:50) 16 0 0.6 1.4 14
13-10-2019 24.9 (15:50) 16.2 (00:00) 20.6 10.83 (21:30) 6.94 (21:50) 0 0 0 0 0
12-10-2019 24.8 (14:20) 17 (00:00) 20.9 11.67 (11:10) 7.5 (11:10) 0 0 0 0 0
11-10-2019 25.1 (16:20) 11.1 (00:00) 18.1 8.61 (22:40) 5.56 (23:59) 0 0 0 0 0
10-10-2019 21.4 (16:00) 7.2 (00:00) 14.3 4.72 (01:10) 2.78 (01:10) 0 0 0 0 0
09-10-2019 24.5 (15:20) 11.9 (00:00) 18.2 10.28 (16:30) 4.44 (16:30) 0 0 0 0 0
08-10-2019 25.8 (16:20) 13.1 (00:00) 19.4 6.67 (10:50) 4.44 (10:50) 0 0 0 0 0
07-10-2019 26.8 (16:50) 10.9 (00:00) 18.8 11.67 (01:10) 4.44 (02:50) 0 0 0 0 0
06-10-2019 24.6 (16:10) 10.5 (00:00) 17.6 11.11 (18:10) 4.72 (18:00) 0 0 0 0 0
05-10-2019 24.9 (18:00) 11.2 (00:00) 18 6.39 (00:10) 3.33 (00:10) 0 0 0 0 0
04-10-2019 27 (16:20) 10.8 (00:00) 18.9 9.17 (15:20) 5.28 (15:20) 0 0 0 0 0
03-10-2019 25 (17:50) 9.5 (00:00) 17.3 8.33 (19:50) 3.61 (18:10) 0 0 0 0 0
02-10-2019 22.4 (16:00) 13.2 (00:00) 17.8 12.78 (13:50) 5 (13:40) 0 0 0 0 0
01-10-2019 28 (16:00) 14.1 (00:00) 21.1 8.89 (18:10) 3.61 (06:00) 0 0 0 0 0
30-09-2019 28.4 (16:30) 14.5 (00:00) 21.4 4.72 (16:40) 2.78 (23:40) 0 0 0 0 0
29-09-2019 28.8 (16:50) 13.8 (00:00) 21.3 7.5 (16:20) 3.61 (00:30) 0 0 0 0 0
28-09-2019 26 (17:10) 14.2 (00:00) 20.1 6.39 (13:40) 3.89 (12:00) 0 0 0 0 0
27-09-2019 27.8 (16:50) 14.9 (00:00) 21.3 5.83 (16:50) 2.78 (01:40) 0 0 0 0 0
26-09-2019 26.4 (17:20) 12.5 (00:00) 19.4 5.28 (01:00) 2.22 (00:50) 0 0 0 0 0
25-09-2019 23.6 (16:00) 12.7 (00:00) 18.2 10 (14:00) 3.89 (11:10) 0 0 0 0 0
24-09-2019 27 (16:40) 14 (00:00) 20.5 8.06 (15:50) 3.33 (18:10) 0 0 0 0 0
23-09-2019 22.4 (16:10) 10.6 (00:00) 16.5 6.39 (16:00) 2.78 (11:50) 0 0 0 0 0
22-09-2019 23.5 (16:30) 14.8 (00:00) 19.2 7.22 (01:00) 4.72 (01:00) 0.6 0.4 0 0.2 0

Gráficas

Temp. máximas Temp. mínimas Temp. medias Precipitaciones Rachas de viento máximas Velocidades máximas media en intervalos de 10 minutos

Datos horarios

Fecha y hora oficial Temperatura (ºC) Velocidad del viento (km/h) Dirección del viento Racha (km/h) Dirección de racha Precipitación (mm) Presión (hPa) Tendencia (hPa) Humedad (%)
2019-10-21 23:00:00 9.4 6 Nordeste 9 Nordeste 0 954.6 0.9 85
2019-10-21 22:00:00 9.4 6 Nordeste 10 Este 0 954.5 1.4 85
2019-10-21 21:00:00 9.6 5 Este 7 Este 0 954.2 1.2 81
2019-10-21 20:00:00 10.5 5 Este 5 Este 0 953.7 0.7 74
2019-10-21 19:00:00 12.4 2 Noroeste 7 Sur 0 953.1 0 68
2019-10-21 18:00:00 14 5 Sur 10 Sudoeste 0 953 -0.3 61
2019-10-21 17:00:00 14.8 4 Sudoeste 17 Sudoeste 0 953 -0.6 63
2019-10-21 16:00:00 15.2 6 Sur 13 Sur 0 953.1 -0.9 61
2019-10-21 15:00:00 14.4 5 Sudoeste 11 Sudeste 0 953.3 -0.5 68
2019-10-21 14:00:00 13.2 3 Sudoeste 9 Sudoeste 0 953.6 0.4 75
2019-10-21 13:00:00 11.1 3 Sudoeste 9 Sudoeste 0 954 1.2 86
2019-10-21 12:00:00 9.8 4 Sudoeste 8 Sudoeste 0 953.8 1.5 93
2019-10-21 11:00:00 8.6 5 Oeste 9 Oeste 0 953.2 1.6 97
2019-10-21 10:00:00 7.6 4 Noroeste 10 Noroeste 0 952.8 1.3 100
2019-10-21 09:00:00 6.7 4 Noroeste 9 Noroeste 0 952.3 1.2 100
2019-10-21 08:00:00 7 6 Noroeste 12 Noroeste 0 951.6 0.7 100
2019-10-21 07:00:00 6.6 3 Sudoeste 8 Nordeste 0 951.5 0.6 100
2019-10-21 06:00:00 7.3 4 Este 8 Norte 0 951.1 0.4 99
2019-10-21 05:00:00 7.7 4 Noroeste 10 Noroeste 0 950.9 0.6 100
2019-10-21 04:00:00 7.9 6 Oeste 15 Noroeste 0 950.9 0.8 99
2019-10-21 03:00:00 8.4 3 Oeste 11 Oeste 0 950.7 1.1 98
2019-10-21 02:00:00 8.2 5 Oeste 12 Oeste 0 950.3 1.3 97
2019-10-21 01:00:00 8.4 5 Oeste 13 Oeste 0 950.1 1.7 96
2019-10-21 00:00:00 8.9 4 Oeste 14 Oeste 0 949.6 2.2 95
2019-10-20 23:00:00 9.6 3 Oeste 14 Sudoeste 0 949 2.3 91
2019-10-20 22:00:00 10.7 5 Oeste 14 Oeste 0 948.4 2.9 88
2019-10-20 21:00:00 11.3 5 Noroeste 17 Oeste 0 947.4 2.6 85
2019-10-20 20:00:00 13.2 6 Oeste 22 Sudoeste 0 946.7 2.2 66
2019-10-20 19:00:00 14.1 0 Calma 7 Oeste 0 945.5 1.3 68
2019-10-20 18:00:00 15.2 4 Oeste 13 Sudoeste 0 944.8 1 55
2019-10-20 17:00:00 15.8 4 Sudoeste 15 Sudoeste 0 944.5 0.9 57
2019-10-20 16:00:00 15.6 8 Oeste 21 Sudoeste 0 944.2 0.7 59
2019-10-20 15:00:00 15.7 6 Oeste 22 Oeste 0 943.8 0 59
2019-10-20 14:00:00 15.8 7 Noroeste 17 Noroeste 0 943.6 0.4 66
2019-10-20 13:00:00 14.9 6 Oeste 21 Oeste 0 943.5 0.8 67
2019-10-20 12:00:00 14.8 5 Oeste 26 Oeste 0 943.8 2.2 75
2019-10-20 11:00:00 14.7 6 Oeste 17 Noroeste 0 943.2 2 89
2019-10-20 10:00:00 14 3 Oeste 13 Oeste 0 942.7 1.9 96
2019-10-20 09:00:00 14.1 2 Oeste 8 Nordeste 0 941.6 1.1 96
2019-10-20 08:00:00 13.9 3 Nordeste 12 Nordeste 0 941.2 0.1 96
2019-10-20 07:00:00 14.1 6 Nordeste 12 Este 0 940.8 -0.4 97
2019-10-20 06:00:00 14.2 8 Este 19 Este 0.4 940.5 -1.1 97
2019-10-20 05:00:00 14.6 6 Sudeste 9 Sudeste 1.2 941.1 -0.8 96
2019-10-20 04:00:00 14.8 4 Este 13 Este 1.6 941.2 -0.5 93
2019-10-20 03:00:00 15.1 9 Este 13 Este 0.2 941.6 0 91
2019-10-20 02:00:00 15.3 7 Este 24 Sudeste 0.2 941.9 0.1 90
2019-10-20 01:00:00 16.1 16 Sudeste 24 Sudeste 0 941.7 -0.2 82
2019-10-20 00:00:00 16.5 14 Sudeste 24 Sudeste 0 941.6 -0.4 75
2019-10-19 23:00:00 17.1 15 Sudeste 24 Sudeste 0 941.8 -0.7 66
2019-10-19 22:00:00 17 10 Este 16 Este 0 941.9 -0.5 65
2019-10-19 21:00:00 16.8 11 Este 17 Este 0 942 -0.5 66
2019-10-19 20:00:00 17 9 Este 16 Sudeste 0 942.5 -0.3 64
2019-10-19 19:00:00 18.9 11 Sudeste 21 Sudeste 0 942.4 -0.9 58
2019-10-19 18:00:00 19.9 11 Sudeste 22 Sudeste 0 942.5 -1.7 53
2019-10-19 17:00:00 19.4 15 Este 24 Este 0 942.8 -2 54
2019-10-19 16:00:00 19.5 12 Este 20 Este 0 943.3 -2.2 55
2019-10-19 15:00:00 18.5 8 Este 13 Este 0 944.2 -2.1 56
2019-10-19 14:00:00 17.9 4 Norte 11 Nordeste 0 944.8 -1.5 58
2019-10-19 13:00:00 17.5 5 Noroeste 15 Noroeste 0 945.5 -1 60
2019-10-19 12:00:00 17.5 6 Oeste 17 Oeste 0 946.3 0 61
2019-10-19 11:00:00 17.3 4 Sudoeste 8 Sudoeste 0 946.3 0.1 65
2019-10-19 10:00:00 15.4 6 Sudoeste 14 Oeste 0 946.5 0 79
2019-10-19 09:00:00 14 6 Nordeste 11 Nordeste 0 946.3 -0.2 90
2019-10-19 08:00:00 13.4 6 Nordeste 9 Este 0 946.2 -0.2 90
2019-10-19 07:00:00 14.1 4 Este 10 Este 0 946.5 -0.4 86
2019-10-19 06:00:00 14.5 5 Este 13 Este 0 946.5 -1.5 86
2019-10-19 05:00:00 14 9 Este 14 Este 0 946.4 -1.7 88
2019-10-19 04:00:00 14 10 Este 14 Este 0 946.9 -1.4 89
2019-10-19 03:00:00 14.5 10 Sudeste 14 Este 0 948 -0.7 89
2019-10-19 02:00:00 14.9 9 Sudeste 15 Este 0 948.1 -1 86
2019-10-19 01:00:00 15 10 Este 15 Este 0 948.3 -0.8 88
2019-10-19 00:00:00 15 11 Este 16 Este 0 948.7 -0.4 89
2019-10-18 23:00:00 15.4 9 Este 12 Este 0 949.1 -0.1 88
2019-10-18 22:00:00 15.7 9 Este 12 Sudeste 0 949.1 -0.4 88
2019-10-18 21:00:00 16.1 8 Sudeste 12 Sudeste 0 949.1 -0.9 86
2019-10-18 20:00:00 16.4 7 Este 9 Nordeste 0 949.2 -1 85
2019-10-18 19:00:00 17.5 2 Norte 4 Oeste 0 949.5 -1 80
2019-10-18 18:00:00 18.4 3 Sudoeste 8 Oeste 0 950 -0.8 74
2019-10-18 17:00:00 18.9 3 Sudoeste 11 Sudoeste 0 950.2 -1.2 72
2019-10-18 16:00:00 19 3 Este 10 Sudeste 0 950.5 -1.7 70
2019-10-18 15:00:00 18.9 3 Sudeste 11 Sur 0 950.8 -1.6 69
2019-10-18 14:00:00 18.2 7 Sudeste 14 Este 0 951.4 -1.2 75
2019-10-18 13:00:00 17 5 Este 8 Sudeste 0.2 952.2 -0.1 84
2019-10-18 12:00:00 16.1 7 Este 12 Este 0 952.4 0.4 86
2019-10-18 11:00:00 14.4 3 Norte 13 Sudeste 0 952.6 1.3 92
2019-10-18 10:00:00 13.3 5 Nordeste 9 Este 0 952.3 0.9 96
2019-10-18 09:00:00 12.2 3 Sudeste 12 Sur 0 952 0.3 95
2019-10-18 08:00:00 11.8 6 Este 16 Oeste 2.8 951.3 -0.4 93
2019-10-18 07:00:00 13.8 6 Este 9 Este 0 951.4 -0.9 84
2019-10-18 06:00:00 14 4 Este 9 Norte 0 951.7 -1 84
2019-10-18 05:00:00 13.9 5 Nordeste 10 Nordeste 0 951.7 -0.9 83
2019-10-18 04:00:00 14.2 3 Norte 11 Noroeste 0 952.3 -0.6 79
2019-10-18 03:00:00 13.3 5 Norte 10 Noroeste 0 952.7 -0.3 81
2019-10-18 02:00:00 11.6 3 Norte -- -- 0 952.6 -0.3 82
2019-10-18 01:00:00 12.2 4 Sur 7 Este 0 952.9 0.4 77
2019-10-18 00:00:00 12.5 3 Nordeste 8 Nordeste 0 953 0.6 78
2019-10-17 23:00:00 13.1 5 Nordeste 8 Este 0 952.9 0.7 74
2019-10-17 22:00:00 12.9 5 Nordeste 8 Nordeste 0 952.5 0.6 75
2019-10-17 21:00:00 13.5 3 Nordeste 5 Nordeste 0 952.4 0.7 71
2019-10-17 20:00:00 14.5 0 Calma 5 Norte 0 952.2 0.5 66
2019-10-17 19:00:00 16.7 3 Norte 13 Oeste 0 951.9 -0.3 60
2019-10-17 18:00:00 18 5 Oeste 14 Oeste 0 951.7 -1 56
2019-10-17 17:00:00 18.6 4 Sudoeste 13 Sudoeste 0 951.7 -1.7 54
2019-10-17 16:00:00 18.3 6 Sudoeste 13 Sur 0 952.2 -1.5 52
2019-10-17 15:00:00 17.7 6 Sur 11 Sudoeste 0 952.7 -0.9 53
2019-10-17 14:00:00 16.5 4 Oeste 8 Sudoeste 0 953.4 -0.3 56
2019-10-17 13:00:00 15.1 4 Noroeste 10 Noroeste 0 953.7 0.4 61
2019-10-17 12:00:00 14 4 Norte 11 Norte 0 953.6 1.4 71
2019-10-17 11:00:00 12.5 4 Noroeste 13 Oeste 0.4 953.7 1.9 78
2019-10-17 10:00:00 12.6 4 Nordeste 10 Noroeste 0 953.3 1.8 71
2019-10-17 09:00:00 12.3 7 Este 13 Este 0 952.2 0.6 66
2019-10-17 08:00:00 10.9 9 Este 14 Nordeste 0 951.8 -0.1 68
2019-10-17 07:00:00 11 9 Este 12 Este 0 951.5 -0.6 68
2019-10-17 06:00:00 11.7 8 Nordeste 11 Este 0 951.6 -0.9 65
2019-10-17 05:00:00 11.5 7 Nordeste 11 Nordeste 0 951.9 -0.6 65
2019-10-17 04:00:00 11.7 8 Este 13 Nordeste 0 952.1 -0.5 64
2019-10-17 03:00:00 11.4 8 Este 13 Este 0 952.5 -0.3 66
2019-10-17 02:00:00 12.3 7 Nordeste 10 Nordeste 0 952.5 -0.3 62
2019-10-17 01:00:00 11.1 6 Nordeste 8 Nordeste 0 952.6 0.4 68
2019-10-17 00:00:00 11.8 3 Sudoeste 7 Sur 0 952.8 0.8 65
2019-10-16 23:00:00 11.9 5 Sudeste 9 Sudeste 0 952.8 1 65
2019-10-16 22:00:00 13.9 3 Norte 10 Este 0 952.2 0.6 55
2019-10-16 21:00:00 14.1 3 Norte 10 Norte 0 952 0.1 56
2019-10-16 20:00:00 14.3 2 Norte 7 Nordeste 0 951.8 -0.5 57
2019-10-16 19:00:00 16.4 4 Nordeste 8 Noroeste 0 951.6 -1.3 53
2019-10-16 18:00:00 17.7 3 Noroeste 12 Oeste 0 951.9 -1.2 48
2019-10-16 17:00:00 18 6 Sudoeste 12 Sudoeste 0 952.3 -1.7 46
2019-10-16 16:00:00 18.8 5 Oeste 16 Oeste 0 952.9 -1.8 45
2019-10-16 15:00:00 17.9 4 Sudoeste 12 Sur 0 953.1 -2 46
2019-10-16 14:00:00 16.6 5 Sudoeste 17 Sudoeste 0 954 -1.2 49
2019-10-16 13:00:00 16.5 7 Sur 15 Sur 0 954.7 -0.3 52
2019-10-16 12:00:00 15.8 4 Sudoeste 9 Oeste 0 955.1 0.6 51
2019-10-16 11:00:00 13.8 4 Sudeste 10 Este 0 955.2 1.2 60
2019-10-16 10:00:00 11.4 6 Este 9 Este 0 955 1.1 72
2019-10-16 09:00:00 8.8 6 Este 9 Este 0 954.5 0.5 80
2019-10-16 08:00:00 9 3 Este 5 Este 0 954 -0.2 71
2019-10-16 07:00:00 9.9 4 Nordeste 8 Nordeste 0 953.9 -0.4 73
2019-10-16 06:00:00 10 2 Este 4 Norte 0 954 -1 69
2019-10-16 05:00:00 10.4 3 Norte 6 Noroeste 0 954.2 -0.9 70
2019-10-16 04:00:00 10.1 4 Oeste 7 Oeste 0 954.3 -1 68
2019-10-16 03:00:00 10.7 3 Noroeste 6 Oeste 0 955 -0.2 66
2019-10-16 02:00:00 10.8 3 Oeste 5 Oeste 0 955.1 0.1 64
2019-10-16 01:00:00 10.5 4 Sudoeste 5 Sudoeste 0 955.3 0.7 66
2019-10-16 00:00:00 9.7 3 Noroeste 8 Norte 0 955.2 1 66
2019-10-15 23:00:00 10.3 4 Norte 9 Noroeste 0 955 0.8 65
2019-10-15 22:00:00 10.9 3 Noroeste 10 Norte 0 954.6 0.9 64
2019-10-15 21:00:00 11.6 3 Norte 10 Norte 0 954.2 0.9 63
2019-10-15 20:00:00 12.8 4 Noroeste 14 Oeste 0 954.2 1.4 61
2019-10-15 19:00:00 14.5 4 Noroeste 22 Oeste 0 953.7 0.8 56
2019-10-15 18:00:00 15.9 7 Oeste 22 Noroeste 0 953.3 0.4 50
2019-10-15 17:00:00 16.7 9 Oeste 32 Sudoeste 0 952.8 -0.4 47
2019-10-15 16:00:00 16.4 13 Oeste 30 Oeste 0 952.9 -0.7 47
2019-10-15 15:00:00 16.2 12 Oeste 33 Noroeste 0 952.9 -0.5 51
2019-10-15 14:00:00 15.3 14 Oeste 31 Noroeste 0 953.2 0.3 51
2019-10-15 13:00:00 14.6 12 Oeste 30 Noroeste 0 953.6 1.4 57
2019-10-15 12:00:00 13 11 Oeste 31 Oeste 0 953.4 2.4 64
2019-10-15 11:00:00 11.3 10 Oeste 27 Oeste 0 952.9 2.2 73
2019-10-15 10:00:00 9.1 6 Oeste 23 Oeste 0 952.2 1.9 84
2019-10-15 09:00:00 7.5 7 Oeste 20 Oeste 0 951 0.7 88
2019-10-15 08:00:00 7.3 9 Oeste 21 Noroeste 0 950.7 1.2 87
2019-10-15 07:00:00 8.1 8 Oeste 24 Oeste 0 950.3 1 81
2019-10-15 06:00:00 9 9 Oeste 26 Oeste 0 950.3 1 79
2019-10-15 05:00:00 9.6 10 Noroeste 25 Oeste 0 949.5 0.5 81
2019-10-15 04:00:00 9.2 8 Oeste 21 Oeste 0 949.3 0.2 91
2019-10-15 03:00:00 9.2 7 Oeste 19 Noroeste 0 949.3 0.6 91
2019-10-15 02:00:00 10.1 8 Oeste 27 Oeste 0 949 0 85
2019-10-15 01:00:00 11.1 8 Oeste 27 Oeste 0.4 949.1 1.5 86
2019-10-15 00:00:00 11.4 11 Norte 22 Norte 0.2 948.7 2 88
2019-10-14 23:00:00 12.3 8 Oeste 29 Oeste 0 949 2.6 85
2019-10-14 22:00:00 14.2 11 Oeste 31 Oeste 0 947.6 2.3 91
2019-10-14 21:00:00 14.2 9 Este 15 Este 0 946.7 1.5 97
2019-10-14 20:00:00 15 10 Este 22 Este 0 946.4 -0.3 92
2019-10-14 19:00:00 15.7 11 Este 23 Este 13.8 945.3 -1.6 92
2019-10-14 18:00:00 18.2 16 Este 34 Este 0 945.2 -2.7 80
2019-10-14 17:00:00 18.3 16 Este 41 Sudeste 0 946.7 -2.7 82
2019-10-14 16:00:00 18.8 23 Sudeste 41 Este 0 946.9 -4.1 82
2019-10-14 15:00:00 18.1 20 Sudeste 34 Este 0 947.9 -3 91
2019-10-14 14:00:00 16.6 16 Este 28 Este 0.6 949.4 -0.3 95
2019-10-14 13:00:00 16.8 10 Este 22 Este 0.8 951 1.9 93
2019-10-14 12:00:00 17 14 Este 28 Este 0.4 950.9 2.2 90
2019-10-14 11:00:00 17.1 18 Este 41 Este 0.2 949.7 1 85
2019-10-14 10:00:00 17.5 26 Este 41 Este 0 949.1 0.5 80
2019-10-14 09:00:00 16.9 22 Este 37 Este 0 948.7 -0.8 77
2019-10-14 08:00:00 15.8 19 Este 31 Este 0 948.7 -0.9 81
2019-10-14 07:00:00 16.1 20 Este 35 Este 0 948.6 -1.8 80
2019-10-14 06:00:00 16.2 19 Este 33 Este 0 949.5 -1.8 80
2019-10-14 05:00:00 17 22 Este 37 Este 0 949.6 -2.1 78
2019-10-14 04:00:00 16.7 19 Este 29 Este 0 950.4 -1.8 81
2019-10-14 03:00:00 16.6 16 Este 33 Este 0 951.3 -0.6 83
2019-10-14 02:00:00 16.9 18 Este 29 Este 0 951.7 -0.5 84
2019-10-14 01:00:00 17.4 18 Este 36 Este 0 952.2 0.5 82
2019-10-14 00:00:00 17.7 20 Este 33 Este 0 951.9 0.3 83
2019-10-13 23:00:00 18 17 Este 37 Este 0 952.2 1 81
2019-10-13 22:00:00 18.7 23 Este 39 Sudeste 0 951.7 0.8 79
2019-10-13 21:00:00 19.9 21 Sudeste 34 Sudeste 0 951.6 0.7 74
2019-10-13 20:00:00 21.4 14 Sudeste 25 Sudeste 0 951.2 0 66
2019-10-13 19:00:00 22.9 15 Sudeste 28 Sudeste 0 950.9 -0.5 58
2019-10-13 18:00:00 24.4 20 Sudeste 33 Sudeste 0 950.9 -1.1 52
2019-10-13 17:00:00 24.8 21 Sudeste 34 Sudeste 0 951.2 -1.9 51
2019-10-13 16:00:00 24.6 22 Este 34 Este 0 951.4 -2.2 53
2019-10-13 15:00:00 24.3 18 Este 29 Sudeste 0 952 -1.7 54
2019-10-13 14:00:00 23 15 Sudeste 32 Sudeste 0 953.1 -0.4 59
2019-10-13 13:00:00 22.2 17 Este 30 Sudeste 0 953.6 0.4 63
2019-10-13 12:00:00 21 21 Sudeste 37 Sudeste 0 953.7 0.6 70
2019-10-13 11:00:00 19.5 23 Este 33 Este 0 953.5 1.2 74
2019-10-13 10:00:00 18.4 17 Este 28 Sudeste 0 953.2 1 75
2019-10-13 09:00:00 17.1 13 Este 27 Este 0 953.1 1 80
2019-10-13 08:00:00 16.3 16 Este 31 Este 0 952.3 0.1 83
2019-10-13 07:00:00 16.6 14 Este 27 Este 0 952.2 -1 81
2019-10-13 06:00:00 16.9 18 Este 33 Este 0 952.1 -1.5 80
2019-10-13 05:00:00 16.8 19 Este 33 Este 0 952.2 -2.3 82
2019-10-13 04:00:00 17.3 15 Este 30 Este 0 953.2 -0.8 81
2019-10-13 03:00:00 17.5 18 Este 28 Este 0 953.6 0.2 81
2019-10-13 02:00:00 17.4 16 Este 30 Este 0 954.5 0.8 82
2019-10-13 01:00:00 17.5 16 Este 30 Este 0 954 0.6 82
2019-10-13 00:00:00 17.6 17 Este 27 Sudeste 0 953.4 0.3 82
2019-10-12 23:00:00 18 18 Este 33 Este 0 953.7 1.1 80
2019-10-12 22:00:00 18.5 19 Este 33 Este 0 953.4 1.2 79
2019-10-12 21:00:00 19.4 18 Este 30 Sudeste 0 953.1 0.8 76
2019-10-12 20:00:00 20.5 19 Sudeste 32 Sudeste 0 952.6 0 70
2019-10-12 19:00:00 22 21 Sudeste 35 Sudeste 0 952.2 -0.9 64
2019-10-12 18:00:00 23.2 22 Sudeste 36 Sudeste 0 952.3 -1.4 61
2019-10-12 17:00:00 23.6 22 Sudeste 33 Sudeste 0 952.6 -1.8 59
2019-10-12 16:00:00 24.3 23 Sudeste 32 Sudeste 0 953.1 -1.9 54
2019-10-12 15:00:00 23.9 19 Este 35 Este 0 953.7 -1.5 53
2019-10-12 14:00:00 24.3 23 Sudeste 35 Sudeste 0 954.4 -0.6 53
2019-10-12 13:00:00 23.4 21 Sudeste 39 Sudeste 0 955 0.4 57
2019-10-12 12:00:00 21.6 26 Sudeste 42 Sudeste 0 955.2 0.8 64
2019-10-12 11:00:00 20 27 Sudeste 42 Sudeste 0 955 0.8 72
2019-10-12 10:00:00 18.6 18 Este 35 Este 0 954.6 0.7 77
2019-10-12 09:00:00 17.7 19 Este 30 Este 0 954.4 -0.3 82
2019-10-12 08:00:00 17.6 16 Este 29 Este 0 954.2 0.9 82
2019-10-12 07:00:00 17.7 18 Este 28 Este 0 953.9 -0.3 83
2019-10-12 06:00:00 17.7 9 Este 33 Sudeste 0 954.7 -0.5 84
2019-10-12 05:00:00 17.7 21 Este 36 Este 0 953.3 -1.8 84
2019-10-12 04:00:00 17.3 19 Este 31 Este 0 954.2 -1 87
2019-10-12 03:00:00 17 15 Este 24 Este 0 955.2 0.3 88
2019-10-12 02:00:00 17.4 15 Este 28 Este 0 955.1 0.1 87
2019-10-12 01:00:00 17.3 16 Este 31 Sudeste 0 955.2 0.8 88
2019-10-12 00:00:00 17.7 20 Este 30 Este 0 954.9 0.9 88
2019-10-11 23:00:00 18.1 18 Este 31 Este 0 955 1.1 86
2019-10-11 22:00:00 19.2 15 Este 24 Este 0 954.4 0.6 77
2019-10-11 21:00:00 19.8 11 Este 18 Este 0 954 0 72
2019-10-11 20:00:00 20.6 11 Este 22 Sudeste 0 953.9 -0.4 68
2019-10-11 19:00:00 21.9 15 Sudeste 23 Sudeste 0 953.8 -1 62
2019-10-11 18:00:00 23.8 13 Sudeste 24 Sudeste 0 954 -1.7 55
2019-10-11 17:00:00 24.9 14 Sudeste 21 Sudeste 0 954.3 -2.4 51
2019-10-11 16:00:00 24.9 11 Sudeste 22 Sudeste 0 954.8 -2.7 49
2019-10-11 15:00:00 23.9 10 Sudeste 23 Sudeste 0 955.7 -2.1 50
2019-10-11 14:00:00 23.1 10 Sudeste 22 Sudeste 0 956.7 -1 52
2019-10-11 13:00:00 22 12 Sudeste 23 Sudeste 0 957.5 -0.2 54
2019-10-11 12:00:00 20.3 13 Sudeste 26 Este 0 957.8 0.6 54
2019-10-11 11:00:00 18.8 14 Este 21 Sudeste 0 957.7 0.8 60
2019-10-11 10:00:00 15.2 7 Este 13 Este 0 957.7 1.1 61
2019-10-11 09:00:00 12.9 6 Este 10 Este 0 957.2 0.5 67
2019-10-11 08:00:00 11.6 5 Este 11 Este 0 956.9 0.1 70
2019-10-11 07:00:00 11.4 6 Este 9 Este 0 956.6 -0.4 73
2019-10-11 06:00:00 11.8 8 Este 10 Este 0 956.7 -0.6 73
2019-10-11 05:00:00 11.6 9 Este 13 Este 0 956.8 -0.7 80
2019-10-11 04:00:00 12.2 9 Este 19 Este 0 957 -0.8 77
2019-10-11 03:00:00 12.7 12 Este 19 Este 0 957.3 -0.4 74
2019-10-11 02:00:00 13.1 10 Nordeste 17 Nordeste 0 957.5 0 64
2019-10-11 01:00:00 13.2 9 Este 16 Este 0 957.8 0.5 63
2019-10-11 00:00:00 13.7 9 Este 15 Este 0 957.7 0.8 62
2019-10-10 23:00:00 13.9 8 Este 12 Este 0 957.5 1 59
2019-10-10 22:00:00 14.1 9 Este 12 Este 0 957.3 1 55
2019-10-10 21:00:00 14.3 7 Este 9 Este 0 956.9 0.7 52
2019-10-10 20:00:00 16.1 2 Sudeste 4 Oeste 0 956.5 0.1 47
2019-10-10 19:00:00 19 4 Sudoeste 8 Oeste 0 956.3 -0.3 41
2019-10-10 18:00:00 20.4 6 Sudoeste 15 Oeste 0 956.2 -1 38
2019-10-10 17:00:00 21 5 Sudoeste 15 Sudoeste 0 956.4 -1.4 36
2019-10-10 16:00:00 21.2 6 Sur 14 Oeste 0 956.6 -1.7 40
2019-10-10 15:00:00 20.6 6 Sudeste 13 Sur 0 957.2 -1.4 43
2019-10-10 14:00:00 19.2 6 Sudeste 12 Sudeste 0 957.8 -0.9 49
2019-10-10 13:00:00 18 4 Sudeste 13 Sur 0 958.3 0.2 54
2019-10-10 12:00:00 15.9 8 Sudeste 15 Sur 0 958.6 1.2 58
2019-10-10 11:00:00 14.2 8 Sudeste 14 Sudeste 0 958.7 2.1 68
2019-10-10 10:00:00 11.4 9 Este 14 Sudeste 0 958.1 1.6 79
2019-10-10 09:00:00 9 6 Nordeste 10 Nordeste 0 957.4 1.1 87
2019-10-10 08:00:00 7.7 8 Este 9 Este 0 956.6 0.8 89
2019-10-10 07:00:00 7.6 4 Nordeste 10 Este 0 956.5 0.5 88
2019-10-10 06:00:00 7.8 2 Noroeste 8 Oeste 0 956.3 0.2 85
2019-10-10 05:00:00 8 5 Este 8 Oeste 0 955.8 -0.4 83
2019-10-10 04:00:00 9.4 5 Oeste 12 Oeste 0 956 -0.1 82
2019-10-10 03:00:00 10 8 Oeste 14 Oeste 0 956.1 0.5 80
2019-10-10 02:00:00 10.5 7 Oeste 17 Sudoeste 0 956.2 0.9 76
2019-10-10 01:00:00 10.8 9 Sudoeste 15 Oeste 0 956.1 1.4 76
2019-10-10 00:00:00 11.9 9 Sudoeste 15 Sudoeste 0 955.6 1.5 71
2019-10-09 23:00:00 13.3 6 Sudoeste 14 Oeste 0 955.3 2 64
2019-10-09 22:00:00 14.6 8 Oeste 18 Oeste 0 954.7 2 57
2019-10-09 21:00:00 16.2 5 Oeste 21 Oeste 0 954.1 1.7 52
2019-10-09 20:00:00 18.2 6 Oeste 19 Oeste 0 953.3 0.9 47
2019-10-09 19:00:00 20.7 9 Oeste 31 Oeste 0 952.7 0 46
2019-10-09 18:00:00 22.7 10 Oeste 32 Oeste 0 952.4 -0.5 41
2019-10-09 17:00:00 23.8 12 Oeste 37 Sudoeste 0 952.4 -1.2 41
2019-10-09 16:00:00 24.2 15 Oeste 28 Oeste 0 952.7 -1.3 44
2019-10-09 15:00:00 23.9 9 Oeste 24 Sudoeste 0 952.9 -1.8 49
2019-10-09 14:00:00 22.6 9 Sudoeste 22 Sudoeste 0 953.6 -0.9 59
2019-10-09 13:00:00 21.2 9 Oeste 19 Oeste 0 954 -0.1 67
2019-10-09 12:00:00 19.9 6 Oeste 17 Oeste 0 954.7 0.7 74
2019-10-09 11:00:00 18.7 7 Sudoeste 12 Oeste 0 954.5 0.9 76
2019-10-09 10:00:00 17.1 5 Nordeste 10 Nordeste 0 954.1 1.2 80
2019-10-09 09:00:00 15.3 0 Calma 5 Sur 0 954 1.4 86
2019-10-09 08:00:00 14.4 3 Sudeste 8 Este 0 953.6 0.9 84
2019-10-09 07:00:00 14.2 7 Este 14 Sudeste 0 952.9 0.1 82
2019-10-09 06:00:00 14.9 10 Sudeste 14 Sudeste 0 952.6 -0.3 78
2019-10-09 05:00:00 15.6 8 Este 12 Este 0 952.7 -0.2 77
2019-10-09 04:00:00 16.2 10 Este 15 Este 0 952.8 -0.3 76
2019-10-09 03:00:00 16.1 12 Este 16 Este 0 952.9 -0.4 72
2019-10-09 02:00:00 16.3 8 Este 17 Este 0 952.9 -0.3 65
2019-10-09 01:00:00 17.2 10 Este 12 Este 0 953.1 0.1 56
2019-10-09 00:00:00 18 7 Este 12 Nordeste 0 953.3 0.8 53
2019-10-08 23:00:00 18.5 8 Este 12 Este 0 953.2 0.9 52
2019-10-08 22:00:00 18.8 7 Este 10 Nordeste 0 953 0.7 51
2019-10-08 21:00:00 19.1 8 Este 10 Sudeste 0 952.5 0.1 51
2019-10-08 20:00:00 20.7 5 Sudeste 8 Sudeste 0 952.3 -0.5 47
2019-10-08 19:00:00 23.3 7 Sudeste 11 Sur 0 952.3 -0.9 42
2019-10-08 18:00:00 24.9 4 Sudeste 13 Sudeste 0 952.4 -1.4 39
2019-10-08 17:00:00 25.4 6 Sudeste 15 Sudeste 0 952.8 -1.8 38
2019-10-08 16:00:00 25.4 4 Sur 15 Sudeste 0 953.2 -1.9 36
2019-10-08 15:00:00 24.1 9 Sudeste 23 Este 0 953.8 -1.8 38
2019-10-08 14:00:00 23.6 8 Sudeste 21 Sudeste 0 954.6 -0.8 37
2019-10-08 13:00:00 22.5 11 Sudeste 24 Sudeste 0 955.1 -0.2 37
2019-10-08 12:00:00 21 11 Este 22 Sudeste 0 955.6 0.7 36
2019-10-08 11:00:00 19.2 14 Este 24 Sudeste 0 955.4 1 40
2019-10-08 10:00:00 16.7 11 Sudeste 17 Sudeste 0 955.3 1.1 54
2019-10-08 09:00:00 14.2 8 Este 18 Este 0 954.9 0.7 65
2019-10-08 08:00:00 13.2 13 Este 18 Este 0 954.4 0.4 67
2019-10-08 07:00:00 13.9 10 Este 17 Este 0 954.2 0.1 63
2019-10-08 06:00:00 14.3 12 Este 19 Este 0 954.2 0 60
2019-10-08 05:00:00 14.7 14 Este 22 Este 0 954 -0.5 59
2019-10-08 04:00:00 14.7 15 Este 22 Este 0 954.1 -0.2 60
2019-10-08 03:00:00 15.2 10 Este 17 Este 0 954.2 0.3 59
2019-10-08 02:00:00 15.5 4 Noroeste 8 Sudoeste 0 954.5 1.2 60
2019-10-08 01:00:00 16 4 Este 13 Sudeste 0 954.3 1.2 57
2019-10-08 00:00:00 17.2 9 Este 12 Nordeste 0 953.9 1.8 53
2019-10-07 23:00:00 17.8 3 Norte 11 Sudoeste 0 953.3 1.4 54
2019-10-07 22:00:00 18.7 5 Oeste 12 Noroeste 0 953.1 1.7 52
2019-10-07 21:00:00 20.3 8 Norte 19 Noroeste 0 952.1 0.7 45
2019-10-07 20:00:00 21.8 7 Oeste 27 Noroeste 0 951.9 0.8 40
2019-10-07 19:00:00 23.9 10 Noroeste 28 Oeste 0 951.4 -0.1 36
2019-10-07 18:00:00 25.9 8 Oeste 24 Noroeste 0 951.4 -0.3 31
2019-10-07 17:00:00 26.7 9 Oeste 27 Oeste 0 951.1 -1.3 28
2019-10-07 16:00:00 25.7 8 Oeste 19 Oeste 0 951.5 -1.8 27
2019-10-07 15:00:00 24.2 8 Noroeste 22 Noroeste 0 951.7 -1.8 29
2019-10-07 14:00:00 23.3 8 Oeste 24 Sudoeste 0 952.4 -0.5 30
2019-10-07 13:00:00 21.9 7 Oeste 17 Oeste 0 953.3 1.1 34
2019-10-07 12:00:00 20 6 Oeste 19 Oeste 0 953.5 1.7 35
2019-10-07 11:00:00 17.3 6 Oeste 19 Sudoeste 0 952.9 1.8 48
2019-10-07 10:00:00 14.2 8 Oeste 22 Oeste 0 952.2 1.2 58
2019-10-07 09:00:00 11.5 9 Oeste 27 Oeste 0 951.8 0.3 73
2019-10-07 08:00:00 11.1 8 Oeste 26 Oeste 0 951.1 -0.7 72
2019-10-07 07:00:00 11 9 Oeste 23 Oeste 0 951 -1.3 69
2019-10-07 06:00:00 11.4 9 Oeste 25 Oeste 0 951.5 -0.8 67
2019-10-07 05:00:00 11.5 11 Sudoeste 23 Oeste 0 951.8 -0.9 61
2019-10-07 04:00:00 12.6 8 Sudoeste 33 Noroeste 0 952.3 -0.5 55
2019-10-07 03:00:00 13.9 15 Noroeste 36 Noroeste 0 952.3 -1.1 45
2019-10-07 02:00:00 14.1 11 Noroeste 42 Norte 0 952.7 -0.2 47
2019-10-07 01:00:00 14.9 14 Noroeste 35 Norte 0 952.8 -0.4 53
2019-10-07 00:00:00 14.9 12 Oeste 34 Oeste 0 953.4 0.3 57
2019-10-06 23:00:00 15.8 15 Oeste 34 Oeste 0 952.9 0.3 54
2019-10-06 22:00:00 15.8 8 Noroeste 35 Oeste 0 953.2 0.6 57
2019-10-06 21:00:00 16.8 8 Noroeste 32 Noroeste 0 953.1 1.1 56
2019-10-06 20:00:00 18.2 10 Noroeste 39 Oeste 0 952.6 0.7 55
2019-10-06 19:00:00 20.2 14 Oeste 40 Noroeste 0 952.6 0.1 47
2019-10-06 18:00:00 22 17 Noroeste 36 Norte 0 952 -1.2 41
2019-10-06 17:00:00 23.7 12 Oeste 35 Oeste 0 951.9 -2 41
2019-10-06 16:00:00 24.5 12 Oeste 28 Noroeste 0 952.5 -1.9 42
2019-10-06 15:00:00 23 10 Oeste 30 Noroeste 0 953.2 -1.5 42
2019-10-06 14:00:00 20.2 9 Oeste 23 Noroeste 0 953.9 -0.7 48
2019-10-06 13:00:00 20.3 10 Oeste 23 Oeste 0 954.4 0.1 48
2019-10-06 12:00:00 16.6 8 Oeste 20 Oeste 0 954.7 0.9 64
2019-10-06 11:00:00 14.8 5 Oeste 15 Oeste 0 954.6 1.2 76
2019-10-06 10:00:00 12.2 6 Oeste 14 Oeste 0 954.3 1.2 85
2019-10-06 09:00:00 10.9 6 Oeste 13 Oeste 0 953.8 0.9 88
2019-10-06 08:00:00 10.7 5 Noroeste 13 Noroeste 0 953.4 0.7 86
2019-10-06 07:00:00 11.6 7 Noroeste 13 Noroeste 0 953.1 0.4 83
2019-10-06 06:00:00 12 7 Noroeste 14 Noroeste 0 952.9 -0.1 80
2019-10-06 05:00:00 13.5 5 Oeste 8 Oeste 0 952.7 0 73
2019-10-06 04:00:00 14.2 4 Oeste 8 Oeste 0 952.7 0 71
2019-10-06 03:00:00 14.1 5 Noroeste 7 Norte 0 953 0.4 71
2019-10-06 02:00:00 15.5 3 Noroeste 10 Este 0 952.7 0.2 64
2019-10-06 01:00:00 16.5 8 Nordeste 14 Este 0 952.7 0.5 61
2019-10-06 00:00:00 16.7 8 Nordeste 14 Este 0 952.6 0.9 61
2019-10-05 23:00:00 16.9 8 Este 13 Este 0 952.5 1.3 61
2019-10-05 22:00:00 17.3 8 Este 10 Este 0 952.2 1.4 62
2019-10-05 21:00:00 18.6 5 Sur 7 Sur 0 951.7 1.1 56
2019-10-05 20:00:00 20.5 4 Oeste 13 Sudoeste 0 951.2 0.5 50
2019-10-05 19:00:00 23.1 6 Sudoeste 15 Sudoeste 0 950.8 -0.3 45
2019-10-05 18:00:00 24.7 6 Oeste 14 Oeste 0 950.6 -0.9 39
2019-10-05 17:00:00 24.6 6 Sudoeste 13 Sudoeste 0 950.7 -1.1 38
2019-10-05 16:00:00 24.4 6 Oeste 17 Sur 0 951.1 -1.3 38
2019-10-05 15:00:00 22.8 6 Noroeste 13 Oeste 0 951.5 -0.9 36
2019-10-05 14:00:00 22.1 5 Sudoeste 13 Sur 0 951.8 -0.6 43
2019-10-05 13:00:00 20.7 5 Sudoeste 13 Sudoeste 0 952.4 0.5 49
2019-10-05 12:00:00 18.6 7 Sudoeste 13 Sudoeste 0 952.4 0.9 58
2019-10-05 11:00:00 15.9 3 Oeste 12 Noroeste 0 952.4 1.6 69
2019-10-05 10:00:00 13.3 7 Noroeste 11 Noroeste 0 951.9 1.3 79
2019-10-05 09:00:00 12 4 Noroeste 12 Oeste 0 951.5 0.7 83
2019-10-05 08:00:00 11.4 6 Oeste 15 Oeste 0 950.8 0 86
2019-10-05 07:00:00 11.5 8 Oeste 17 Oeste 0 950.6 -0.5 88
2019-10-05 06:00:00 11.7 9 Oeste 18 Oeste 0 950.8 -0.5 87
2019-10-05 05:00:00 12.1 8 Oeste 15 Oeste 0 950.8 -0.5 84
2019-10-05 04:00:00 13.1 4 Sudoeste 17 Oeste 0 951.1 0 76
2019-10-05 03:00:00 14.1 7 Oeste 19 Oeste 0 951.3 0.6 70
2019-10-05 02:00:00 15.1 8 Noroeste 17 Noroeste 0 951.3 0.4 63
2019-10-05 01:00:00 15.9 6 Oeste 23 Noroeste 0 951.1 -0.1 59
2019-10-05 00:00:00 17.2 12 Noroeste 25 Noroeste 0 950.7 0 58
2019-10-04 23:00:00 17.9 6 Noroeste 15 Noroeste 0 950.9 0.7 61
2019-10-04 22:00:00 18.7 4 Noroeste 18 Noroeste 0 951.2 1.4 61
2019-10-04 21:00:00 19.9 5 Noroeste 16 Oeste 0 950.7 1.1 56
2019-10-04 20:00:00 22 7 Oeste 19 Oeste 0 950.2 0.5 48
2019-10-04 19:00:00 24.2 7 Oeste 30 Oeste 0 949.8 -0.5 42
2019-10-04 18:00:00 25.5 14 Oeste 31 Sudoeste 0 949.6 -1.4 44
2019-10-04 17:00:00 26.6 9 Oeste 28 Oeste 0 949.7 -2.4 40
2019-10-04 16:00:00 26.9 12 Oeste 33 Sudoeste 0 950.3 -2.5 38
2019-10-04 15:00:00 25.6 13 Oeste 31 Oeste 0 951 -2.2 45
2019-10-04 14:00:00 24.2 7 Oeste 15 Sudoeste 0 952.1 -1.2 49
2019-10-04 13:00:00 21 7 Oeste 17 Noroeste 0 952.8 -0.5 51
2019-10-04 12:00:00 19.5 4 Sudoeste 10 Sudeste 0 953.2 0.3 47
2019-10-04 11:00:00 16.8 3 Sur 11 Este 0 953.3 1 49
2019-10-04 10:00:00 14.9 5 Sudeste 9 Sudeste 0 953.3 1.2 53
2019-10-04 09:00:00 12 4 Este 10 Nordeste 0 952.9 0.7 65
2019-10-04 08:00:00 11.2 4 Oeste 12 Oeste 0 952.3 0.1 56
2019-10-04 07:00:00 12 5 Nordeste 9 Norte 0 952.1 0 53
2019-10-04 06:00:00 12.1 3 Norte 13 Nordeste 0 952.2 -0.2 54
2019-10-04 05:00:00 11.8 5 Nordeste 11 Nordeste 0 952.2 -0.3 55
2019-10-04 04:00:00 11.9 4 Sudoeste 10 Sudoeste 0 952.1 -0.4 57
2019-10-04 03:00:00 12.9 5 Sur 11 Sur 0 952.4 -0.1 55
2019-10-04 02:00:00 13.5 4 Oeste 8 Oeste 0 952.5 0.3 48
2019-10-04 01:00:00 14.6 6 Oeste 12 Noroeste 0 952.5 0.8 46
2019-10-04 00:00:00 14.8 6 Oeste 12 Sudoeste 0 952.5 1.2 45
2019-10-03 23:00:00 15.7 6 Oeste 13 Oeste 0 952.2 1.5 45
2019-10-03 22:00:00 16.7 6 Oeste 19 Noroeste 0 951.7 1.5 44
2019-10-03 21:00:00 17.8 7 Sudoeste 21 Noroeste 0 951.3 1.1 42
2019-10-03 20:00:00 20.5 8 Sudoeste 30 Oeste 0 950.7 0 30
2019-10-03 19:00:00 23 9 Noroeste 28 Noroeste 0 950.2 -0.9 27
2019-10-03 18:00:00 24.9 10 Oeste 27 Oeste 0 950.2 -1.4 18
2019-10-03 17:00:00 24.7 10 Oeste 26 Oeste 0 950.7 -1.8 30
2019-10-03 16:00:00 24.2 9 Sudoeste 26 Oeste 0 951.1 -1.9 33
2019-10-03 15:00:00 22.1 7 Oeste 19 Oeste 0 951.6 -2.1 40
2019-10-03 14:00:00 20.2 8 Oeste 21 Sudoeste 0 952.5 -1.1 45
2019-10-03 13:00:00 18.4 7 Oeste 17 Sudoeste 0 953 -0.2 55
2019-10-03 12:00:00 15.6 6 Sudoeste 12 Oeste 0 953.7 0.7 63
2019-10-03 11:00:00 13 5 Oeste 10 Sudoeste 0 953.6 1 77
2019-10-03 10:00:00 10.7 4 Noroeste 8 Oeste 0 953.2 0.8 85
2019-10-03 09:00:00 10.3 4 Oeste 9 Oeste 0 953 0.7 84
2019-10-03 08:00:00 9.8 5 Noroeste 10 Noroeste 0 952.6 0.3 85
2019-10-03 07:00:00 10.2 4 Noroeste 10 Oeste 0 952.4 -0.2 80
2019-10-03 06:00:00 10.7 5 Oeste 12 Oeste 0 952.3 -0.2 82
2019-10-03 05:00:00 10.7 5 Oeste 10 Noroeste 0 952.3 -0.2 76
2019-10-03 04:00:00 11.3 6 Oeste 10 Oeste 0 952.6 0 76
2019-10-03 03:00:00 11.7 5 Oeste 13 Oeste 0 952.5 -0.2 71
2019-10-03 02:00:00 12.2 5 Oeste 13 Noroeste 0 952.5 0.2 70
2019-10-03 01:00:00 12.8 6 Oeste 16 Oeste 0 952.6 0.6 69
2019-10-03 00:00:00 13.2 7 Oeste 15 Oeste 0 952.7 1.1 70
2019-10-02 23:00:00 13.6 7 Oeste 16 Oeste 0 952.3 1.2 67
2019-10-02 22:00:00 14.5 6 Oeste 16 Oeste 0 952 1.3 64
2019-10-02 21:00:00 15.4 7 Oeste 22 Oeste 0 951.6 1.3 61
2019-10-02 20:00:00 16.8 7 Noroeste 34 Oeste 0 951.1 1 57
2019-10-02 19:00:00 18.5 12 Noroeste 36 Noroeste 0 950.7 0.4 50
2019-10-02 18:00:00 20.7 14 Noroeste 39 Norte 0 950.3 0.3 47
2019-10-02 17:00:00 21.9 14 Noroeste 42 Noroeste 0 950.1 0 43
2019-10-02 16:00:00 22.4 12 Noroeste 39 Noroeste 0 950.3 -0.3 42
2019-10-02 15:00:00 21.6 17 Noroeste 44 Oeste 0 950 -0.8 45
2019-10-02 14:00:00 21.3 16 Noroeste 46 Oeste 0 950.1 -0.4 46
2019-10-02 13:00:00 21 15 Noroeste 39 Oeste 0 950.6 0 46
2019-10-02 12:00:00 19.5 12 Noroeste 39 Norte 0 950.8 0.8 53
2019-10-02 11:00:00 17.6 15 Noroeste 36 Noroeste 0 950.5 1.1 60
2019-10-02 10:00:00 15.7 13 Noroeste 33 Noroeste 0 950.6 1.5 69
2019-10-02 09:00:00 14.1 12 Oeste 29 Oeste 0 950 1.2 72
2019-10-02 08:00:00 13.6 8 Oeste 26 Oeste 0 949.4 0.7 70
2019-10-02 07:00:00 13.5 8 Oeste 22 Sudoeste 0 949.1 0.2 68
2019-10-02 06:00:00 14.5 10 Oeste 36 Oeste 0 948.8 -0.2 64
2019-10-02 05:00:00 15.7 10 Noroeste 33 Norte 0 948.7 -0.2 56
2019-10-02 04:00:00 15.9 6 Noroeste 21 Norte 0 948.9 0.1 54
2019-10-02 03:00:00 16.3 8 Noroeste 28 Oeste 0 949 0.2 63
2019-10-02 02:00:00 16.3 8 Oeste 23 Noroeste 0 948.9 0.9 62
2019-10-02 01:00:00 16.5 4 Noroeste 19 Oeste 0 948.8 1.2 59
2019-10-02 00:00:00 18.2 3 Oeste 22 Norte 0 948.8 1.5 51
2019-10-01 23:00:00 19 10 Norte 21 Norte 0 948 1.2 47
2019-10-01 22:00:00 19.2 4 Noroeste 10 Norte 0 947.6 1.2 52
2019-10-01 21:00:00 20.6 5 Oeste 14 Noroeste 0 947.3 1.3 48
2019-10-01 20:00:00 22.5 3 Norte 26 Norte 0 946.8 0.7 44
2019-10-01 19:00:00 24.7 8 Noroeste 32 Noroeste 0 946.4 0 38
2019-10-01 18:00:00 26.5 11 Noroeste 29 Noroeste 0 946 -1.1 39
2019-10-01 17:00:00 26.1 13 Oeste 30 Oeste 0 946.1 -1.8 44
2019-10-01 16:00:00 27.9 7 Oeste 21 Oeste 0 946.4 -2 43
2019-10-01 15:00:00 26.9 9 Oeste 18 Oeste 0 947.1 -1.9 46
2019-10-01 14:00:00 25.6 8 Oeste 17 Noroeste 0 947.9 -1.4 47
2019-10-01 13:00:00 24.8 6 Sudoeste 14 Sudoeste 0 948.4 -0.6 53
2019-10-01 12:00:00 23 4 Oeste 9 Sudoeste 0 949 0.3 55
2019-10-01 11:00:00 21.1 5 Este 12 Este 0 949.3 0.8 60
2019-10-01 10:00:00 18.1 3 Este 12 Sudeste 0 949 0.6 67
2019-10-01 09:00:00 15.7 3 Nordeste 8 Este 0 948.7 0.2 77
2019-10-01 08:00:00 14.2 5 Este 12 Este 0 948.5 -0.7 79
2019-10-01 07:00:00 14.9 8 Este 16 Este 0 948.4 -1.2 77
2019-10-01 06:00:00 14.9 13 Este 16 Este 0 948.5 -1.8 77
2019-10-01 05:00:00 15.5 3 Nordeste 13 Este 0 949.2 -1.4 80
2019-10-01 04:00:00 16.2 11 Este 17 Sudeste 0 949.6 -1.4 83
2019-10-01 03:00:00 16.5 12 Este 15 Este 0 950.3 -0.9 75
2019-10-01 02:00:00 17.2 11 Este 17 Este 0 950.6 -0.7 70
2019-10-01 01:00:00 18.4 10 Este 14 Este 0 951 0 61
2019-10-01 00:00:00 19.2 10 Este 16 Nordeste 0 951.2 0.6 58
2019-09-30 23:00:00 19.9 7 Nordeste 13 Nordeste 0 951.3 0.7 53
2019-09-30 22:00:00 20 8 Este 13 Este 0 951 0.2 52
2019-09-30 21:00:00 21.5 8 Sudeste 12 Sudeste 0 950.6 -0.4 49
2019-09-30 20:00:00 23 6 Sudeste 8 Este 0 950.6 -1 43
2019-09-30 19:00:00 26.2 3 Sur 11 Oeste 0 950.8 -1.3 36
2019-09-30 18:00:00 27.9 6 Sudoeste 14 Sudoeste 0 951 -1.6 30
2019-09-30 17:00:00 28.1 4 Oeste 17 Oeste 0 951.6 -1.8 32
2019-09-30 16:00:00 28.1 5 Sudoeste 14 Sudeste 0 952.1 -2.1 32
2019-09-30 15:00:00 27.3 5 Sur 13 Oeste 0 952.6 -1.8 34
2019-09-30 14:00:00 26.1 6 Sudoeste 14 Sur 0 953.4 -0.9 37
2019-09-30 13:00:00 25.1 6 Sudoeste 13 Sur 0 954.2 0.1 44
2019-09-30 12:00:00 23.7 5 Sudoeste 12 Sur 0 954.4 0.8 47
2019-09-30 11:00:00 22 8 Sudeste 13 Sudeste 0 954.3 1.3 47
2019-09-30 10:00:00 19 6 Este 12 Este 0 954.1 1.4 50
2019-09-30 09:00:00 16.3 9 Este 13 Sudeste 0 953.6 0.9 56
2019-09-30 08:00:00 14.6 8 Este 9 Sudeste 0 953 0.3 60
2019-09-30 07:00:00 16.7 6 Noroeste 10 Oeste 0 952.7 -0.2 53
2019-09-30 06:00:00 16.8 6 Oeste 10 Noroeste 0 952.7 -0.3 54
2019-09-30 05:00:00 17.9 6 Noroeste 12 Noroeste 0 952.7 -0.2 48
2019-09-30 04:00:00 18.4 6 Noroeste 9 Noroeste 0 952.9 0.1 44
2019-09-30 03:00:00 18 4 Oeste 7 Oeste 0 953 0.1 43
2019-09-30 02:00:00 18.1 5 Sudoeste 7 Sudoeste 0 952.9 0.3 43
2019-09-30 01:00:00 19.8 3 Oeste 5 Noroeste 0 952.8 0.6 36
2019-09-30 00:00:00 20 4 Noroeste 8 Norte 0 952.9 1 35
2019-09-29 23:00:00 20.8 4 Noroeste 12 Noroeste 0 952.6 1 36
2019-09-29 22:00:00 21.8 6 Norte 10 Noroeste 0 952.2 0.8 34
2019-09-29 21:00:00 22.3 5 Norte 10 Noroeste 0 951.9 0.4 37
2019-09-29 20:00:00 23.1 4 Oeste 10 Sudoeste 0 951.6 -0.2 35
2019-09-29 19:00:00 26.7 5 Oeste 19 Noroeste 0 951.4 -1 30
2019-09-29 18:00:00 28.5 8 Oeste 23 Sudoeste 0 951.5 -1.4 28
2019-09-29 17:00:00 28.7 8 Oeste 27 Oeste 0 951.8 -2 28
2019-09-29 16:00:00 27.9 9 Oeste 22 Sudoeste 0 952.4 -1.8 39
2019-09-29 15:00:00 26.8 7 Sudoeste 15 Oeste 0 952.9 -1.8 48
2019-09-29 14:00:00 25.3 5 Oeste 10 Sudoeste 0 953.8 -0.7 55
2019-09-29 13:00:00 23.9 5 Sudoeste 13 Sur 0 954.2 -0.1 59
2019-09-29 12:00:00 22.7 5 Sur 12 Sur 0 954.7 0.7 67
2019-09-29 11:00:00 20.9 5 Sudeste 13 Sudeste 0 954.5 0.8 69
2019-09-29 10:00:00 18.6 7 Sudeste 12 Este 0 954.3 0.6 70
2019-09-29 09:00:00 15.8 5 Nordeste 17 Nordeste 0 954 0.3 73
2019-09-29 08:00:00 14.4 8 Este 11 Este 0 953.7 -0.2 80
2019-09-29 07:00:00 14.7 8 Este 12 Este 0 953.7 -0.5 81
2019-09-29 06:00:00 14.8 8 Este 12 Este 0 953.7 -1 84
2019-09-29 05:00:00 15.6 10 Este 13 Este 0 953.9 -0.8 79
2019-09-29 04:00:00 16.1 10 Este 16 Este 0 954.2 -0.9 80
2019-09-29 03:00:00 16.1 12 Este 17 Este 0 954.7 -0.5 83
2019-09-29 02:00:00 16.4 11 Este 18 Este 0 954.7 -0.4 83
2019-09-29 01:00:00 17 12 Este 19 Nordeste 0 955.1 0 76
2019-09-29 00:00:00 17.9 11 Este 20 Nordeste 0 955.2 0.3 63
2019-09-28 23:00:00 18.2 9 Este 14 Este 0 955.1 0.5 59
2019-09-28 22:00:00 18.9 9 Este 14 Nordeste 0 955.1 0.5 56
2019-09-28 21:00:00 19.9 9 Sudeste 14 Sudeste 0 954.9 0 51
2019-09-28 20:00:00 21.6 7 Sudeste 11 Sudeste 0 954.6 -0.6 49
2019-09-28 19:00:00 24 6 Sudeste 16 Sur 0 954.6 -1.2 42
2019-09-28 18:00:00 25.6 8 Sur 18 Sudeste 0 954.9 -1.5 40
2019-09-28 17:00:00 25.8 7 Sudeste 17 Sur 0 955.2 -1.9 43
2019-09-28 16:00:00 25.5 8 Sudeste 18 Este 0 955.8 -1.9 46
2019-09-28 15:00:00 25.2 10 Sudeste 22 Sur 0 956.4 -1.3 49
2019-09-28 14:00:00 24.3 12 Sudeste 23 Sudeste 0 957.1 -0.8 54
2019-09-28 13:00:00 23 13 Sudeste 23 Sudeste 0 957.7 0.3 60
2019-09-28 12:00:00 21.3 14 Este 22 Este 0 957.7 1.1 68
2019-09-28 11:00:00 19.9 11 Sudeste 17 Sudeste 0 957.9 2 75
2019-09-28 10:00:00 17.7 7 Sudeste 12 Sudeste 0 957.4 1.7 84
2019-09-28 09:00:00 16 6 Este 13 Sudeste 0 956.6 1.1 87
2019-09-28 08:00:00 14.5 8 Este 14 Este 0 955.9 0.4 82
2019-09-28 07:00:00 14.3 6 Este 12 Este 0 955.7 0.5 63
2019-09-28 06:00:00 14.5 6 Nordeste 9 Este 0 955.5 0.2 62
2019-09-28 05:00:00 15.4 5 Noroeste 10 Noroeste 0 955.5 0.3 67
2019-09-28 04:00:00 15.7 3 Noroeste 11 Oeste 0 955.2 0.3 57
2019-09-28 03:00:00 16.8 6 Oeste 10 Oeste 0 955.3 0.7 48
2019-09-28 02:00:00 16.8 3 Norte 8 Noroeste 0 955.2 1.1 48
2019-09-28 01:00:00 17.4 3 Noroeste 8 Oeste 0 954.9 1.2 45
2019-09-28 00:00:00 18.3 5 Oeste 10 Oeste 0 954.6 1.2 48
2019-09-27 23:00:00 19.4 5 Sudoeste 9 Sudoeste 0 954.1 1.1 44
2019-09-27 22:00:00 20 4 Noroeste 10 Nordeste 0 953.7 0.9 41
2019-09-27 21:00:00 21 4 Noroeste 10 Oeste 0 953.4 0.7 40
2019-09-27 20:00:00 22.9 4 Sudoeste 12 Oeste 0 953 0.3 39
2019-09-27 19:00:00 25.6 6 Oeste 19 Sudoeste 0 952.8 -0.2 32
2019-09-27 18:00:00 27.2 9 Oeste 19 Oeste 0 952.7 -0.9 28
2019-09-27 17:00:00 27.5 9 Oeste 21 Sudoeste 0 952.7 -1.6 30
2019-09-27 16:00:00 27.2 6 Oeste 20 Oeste 0 953 -1.7 41
2019-09-27 15:00:00 26.1 7 Oeste 16 Noroeste 0 953.6 -1.5 47
2019-09-27 14:00:00 25.2 5 Sudoeste 14 Sur 0 954.3 -1 52
2019-09-27 13:00:00 24 4 Sur 12 Oeste 0 954.7 -0.2 57
2019-09-27 12:00:00 22.4 5 Oeste 12 Sudoeste 0 955.1 0.8 63
2019-09-27 11:00:00 20.5 4 Noroeste 10 Noroeste 0 955.3 1 65
2019-09-27 10:00:00 18.3 5 Noroeste 9 Noroeste 0 954.9 0.9 69
2019-09-27 09:00:00 16.4 5 Este 9 Este 0 954.3 0.5 71
2019-09-27 08:00:00 15 4 Este 7 Este 0 954.3 0.5 74
2019-09-27 07:00:00 15.4 2 Sudeste 9 Este 0 954 0.1 70
2019-09-27 06:00:00 16.6 7 Nordeste 12 Nordeste 0 953.8 -0.5 67
2019-09-27 05:00:00 16.3 7 Este 12 Nordeste 0 953.8 -0.6 68
2019-09-27 04:00:00 17.6 9 Este 12 Este 0 953.9 -0.8 63
2019-09-27 03:00:00 18.3 8 Nordeste 17 Nordeste 0 954.3 -0.6 60
2019-09-27 02:00:00 18.4 10 Nordeste 15 Este 0 954.4 -0.2 60
2019-09-27 01:00:00 18.6 8 Este 12 Nordeste 0 954.7 0.4 59
2019-09-27 00:00:00 18.8 5 Nordeste 9 Este 0 954.9 1.2 58
2019-09-26 23:00:00 18.8 5 Nordeste 9 Nordeste 0 954.6 1.1 58
2019-09-26 22:00:00 19.4 4 Sudeste 13 Sudeste 0 954.3 1 57
2019-09-26 21:00:00 20.4 3 Este 6 Sudeste 0 953.7 0.4 51
2019-09-26 20:00:00 22.1 0 Calma 7 Sur 0 953.5 -0.2 50
2019-09-26 19:00:00 24.8 4 Sudoeste 9 Sur 0 953.3 -0.8 40
2019-09-26 18:00:00 25.9 5 Oeste 13 Oeste 0 953.3 -1 39
2019-09-26 17:00:00 26.1 5 Sudoeste 14 Sudoeste 0 953.7 -1.3 39
2019-09-26 16:00:00 25.3 5 Oeste 14 Sur 0 954.1 -1.4 40
2019-09-26 15:00:00 24.8 5 Sudoeste 13 Sudoeste 0 954.3 -1.5 43
2019-09-26 14:00:00 23.6 6 Sudoeste 14 Sudoeste 0 955 -0.6 47
2019-09-26 13:00:00 22.3 6 Oeste 14 Oeste 0 955.5 0.3 51
2019-09-26 12:00:00 20.6 7 Sudoeste 16 Oeste 0 955.8 1.3 57
2019-09-26 11:00:00 19 4 Oeste 8 Norte 0 955.6 1.7 58
2019-09-26 10:00:00 16.3 3 Sudoeste 7 Este 0 955.2 1.7 68
2019-09-26 09:00:00 13.8 4 Este 10 Este 0 954.5 1.2 78
2019-09-26 08:00:00 12.7 5 Este 8 Este 0 953.9 0.6 80
2019-09-26 07:00:00 14 3 Sudeste 13 Noroeste 0 953.5 0.1 74
2019-09-26 06:00:00 15.3 6 Noroeste 18 Noroeste 0 953.3 -0.4 68
2019-09-26 05:00:00 15 7 Noroeste 14 Norte 0 953.3 -0.4 69
2019-09-26 04:00:00 15.3 4 Noroeste 12 Noroeste 0 953.4 -0.3 67
2019-09-26 03:00:00 15.8 6 Noroeste 14 Oeste 0 953.7 0.2 64
2019-09-26 02:00:00 16.2 5 Noroeste 16 Oeste 0 953.7 0.7 63
2019-09-26 01:00:00 16.5 8 Noroeste 19 Noroeste 0 953.7 1 61
2019-09-26 00:00:00 16.5 6 Oeste 18 Oeste 0 953.5 1.3 62
2019-09-25 23:00:00 17.3 4 Noroeste 18 Norte 0 953 1.3 55
2019-09-25 22:00:00 16.7 6 Noroeste 15 Noroeste 0 952.7 1.2 59
2019-09-25 21:00:00 17.7 8 Noroeste 23 Oeste 0 952.2 0.8 58
2019-09-25 20:00:00 18.8 9 Oeste 26 Oeste 0 951.7 0.7 56
2019-09-25 19:00:00 20.2 11 Oeste 31 Oeste 0 951.5 0.4 51
2019-09-25 18:00:00 21.8 10 Oeste 29 Oeste 0 951.4 0.1 46
2019-09-25 17:00:00 23.2 11 Oeste 31 Noroeste 0 951 -0.9 43
2019-09-25 16:00:00 23.5 12 Oeste 32 Noroeste 0 951.1 -0.9 41
2019-09-25 15:00:00 22.7 12 Oeste 32 Oeste 0 951.3 -1.2 44
2019-09-25 14:00:00 22.4 14 Oeste 36 Oeste 0 951.9 -0.3 44
2019-09-25 13:00:00 21.1 12 Noroeste 34 Oeste 0 952 0.1 46
2019-09-25 12:00:00 19.9 14 Oeste 33 Sudoeste 0 952.5 0.6 50
2019-09-25 11:00:00 18.7 12 Oeste 30 Oeste 0 952.2 0.6 59
2019-09-25 10:00:00 14.9 13 Oeste 21 Sudoeste 0 951.9 0.8 82
2019-09-25 09:00:00 13.1 7 Sudoeste 17 Oeste 0 951.9 1 87
2019-09-25 08:00:00 13.1 5 Oeste 12 Oeste 0 951.6 0.9 89
2019-09-25 07:00:00 14.1 6 Sudoeste 12 Oeste 0 951.1 0.3 87
2019-09-25 06:00:00 14.5 6 Sudoeste 10 Oeste 0 950.9 0.2 86
2019-09-25 05:00:00 16 6 Oeste 11 Oeste 0 950.7 0.3 82
2019-09-25 04:00:00 17 5 Oeste 11 Sudoeste 0 950.8 0 76
2019-09-25 03:00:00 17.7 5 Oeste 10 Oeste 0 950.7 -0.3 72
2019-09-25 02:00:00 18.6 4 Noroeste 10 Noroeste 0 950.4 -0.6 69
2019-09-25 01:00:00 19 4 Noroeste 13 Oeste 0 950.8 -0.3 66
2019-09-25 00:00:00 19.5 4 Sudoeste 7 Oeste 0 951 0.2 62
2019-09-24 23:00:00 20 3 Norte 10 Noroeste 0 951 0.4 60
2019-09-24 22:00:00 21.3 6 Norte 14 Noroeste 0 951.1 0.3 54
2019-09-24 21:00:00 21.5 4 Noroeste 10 Noroeste 0 950.8 0.2 56
2019-09-24 20:00:00 23.1 3 Oeste 17 Sudoeste 0 950.6 -0.1 50
2019-09-24 19:00:00 24.8 9 Oeste 29 Oeste 0 950.8 -0.1 44
2019-09-24 18:00:00 26.1 10 Oeste 26 Oeste 0 950.6 -0.9 42
2019-09-24 17:00:00 26.8 9 Oeste 26 Sudoeste 0 950.7 -1.5 39
2019-09-24 16:00:00 26.7 10 Oeste 29 Oeste 0 950.9 -1.7 37
2019-09-24 15:00:00 26 9 Oeste 26 Oeste 0 951.5 -1.5 40
2019-09-24 14:00:00 25.1 9 Oeste 25 Oeste 0 952.2 -1.1 42
2019-09-24 13:00:00 23.8 9 Oeste 22 Oeste 0 952.6 -0.4 45
2019-09-24 12:00:00 21.7 6 Oeste 13 Oeste 0 953 0.1 49
2019-09-24 11:00:00 19.8 5 Sudoeste 12 Oeste 0 953.3 0.3 52
2019-09-24 10:00:00 17.9 4 Sudoeste 7 Sudoeste 0 953 0.1 54
2019-09-24 09:00:00 15.9 0 Calma 5 Nordeste 0 952.9 -0.1 64
2019-09-24 08:00:00 14.1 2 Norte 9 Nordeste 0 953 -0.1 62
2019-09-24 07:00:00 14.2 6 Nordeste 9 Nordeste 0 952.9 -0.4 62
2019-09-24 06:00:00 14.6 6 Nordeste 9 Nordeste 0 953 -0.8 60
2019-09-24 05:00:00 15.2 7 Nordeste 9 Este 0 953.1 -1 58
2019-09-24 04:00:00 15.3 6 Este 9 Este 0 953.3 -1.2 56
2019-09-24 03:00:00 14.9 6 Nordeste 8 Nordeste 0 953.8 -0.7 57
2019-09-24 02:00:00 14.5 4 Nordeste 5 Este 0 954.1 -0.7 61
2019-09-24 01:00:00 15.4 3 Nordeste 5 Este 0 954.5 -0.1 57
2019-09-24 00:00:00 16.2 4 Nordeste 6 Nordeste 0 954.5 -0.2 57
2019-09-23 23:00:00 16.8 3 Norte 8 Nordeste 0 954.8 0.4 54
2019-09-23 22:00:00 17.2 5 Nordeste 10 Nordeste 0 954.6 0.2 55
2019-09-23 21:00:00 17.6 3 Noroeste 6 Noroeste 0 954.7 0.4 52
2019-09-23 20:00:00 19.1 3 Oeste 7 Oeste 0 954.4 -0.2 51
2019-09-23 19:00:00 21.1 4 Oeste 13 Oeste 0 954.4 0 43
2019-09-23 18:00:00 22.2 6 Oeste 20 Oeste 0 954.3 -0.5 40
2019-09-23 17:00:00 22.2 6 Oeste 18 Sudoeste 0 954.6 -0.5 41
2019-09-23 16:00:00 22.1 9 Oeste 23 Oeste 0 954.4 -1 37
2019-09-23 15:00:00 22.1 9 Oeste 22 Oeste 0 954.8 -1 41
2019-09-23 14:00:00 22.1 7 Oeste 21 Sudoeste 0 955.1 -0.7 44
2019-09-23 13:00:00 20.3 8 Oeste 22 Oeste 0 955.4 0.1 55
2019-09-23 12:00:00 18 7 Sudoeste 17 Sudoeste 0 955.8 0.8 68
2019-09-23 11:00:00 15.7 8 Sudoeste 14 Oeste 0 955.8 1.3 73
2019-09-23 10:00:00 13.4 4 Noroeste 9 Noroeste 0 955.3 1.4 77
2019-09-23 09:00:00 11.9 3 Noroeste 8 Noroeste 0 955 1.6 83
2019-09-23 08:00:00 10.9 4 Oeste 10 Oeste 0 954.5 1.5 87
2019-09-23 07:00:00 10.8 3 Oeste 8 Oeste 0 953.9 1.3 87
2019-09-23 06:00:00 11.2 4 Sudoeste 11 Sur 0 953.4 1 87
2019-09-23 05:00:00 11.3 4 Sudoeste 10 Oeste 0 953 0.6 85
2019-09-23 04:00:00 11.9 4 Sudoeste 12 Sudoeste 0 952.6 0.6 81
2019-09-23 03:00:00 12.8 5 Oeste 10 Oeste 0 952.4 0.3 77
2019-09-23 02:00:00 13.4 5 Oeste 10 Oeste 0 952.4 0.7 75
2019-09-23 01:00:00 14.7 4 Oeste 13 Norte 0 952 0.7 67
2019-09-23 00:00:00 14.8 4 Noroeste 9 Oeste 0 952.1 1.4 67
2019-09-22 23:00:00 15.7 3 Noroeste 10 Noroeste 0 951.7 1.9 64
2019-09-22 22:00:00 15.9 3 Noroeste 9 Norte 0 951.3 1.9 64
2019-09-22 21:00:00 17.4 3 Norte 11 Noroeste 0 950.7 1.6 61
2019-09-22 20:00:00 19.2 4 Noroeste 21 Noroeste 0 949.8 1.1 60
2019-09-22 19:00:00 21 8 Oeste 21 Noroeste 0 949.4 0.9 53
2019-09-22 18:00:00 22 12 Oeste 25 Noroeste 0 949.1 0.4 52
2019-09-22 17:00:00 22.7 10 Oeste 26 Oeste 0 948.7 -0.1 60
2019-09-22 16:00:00 23.3 9 Oeste 24 Oeste 0 948.5 -0.6 58
2019-09-22 15:00:00 22.2 9 Oeste 24 Oeste 0.2 948.7 -0.6 62
2019-09-22 14:00:00 22.1 6 Oeste 16 Sudoeste 0 948.8 -0.3 70
2019-09-22 13:00:00 21.4 6 Oeste 18 Sudoeste 0 949.1 0.2 76
2019-09-22 12:00:00 20.6 5 Oeste 13 Este 0 949.3 0.9 80
2019-09-22 11:00:00 18.9 8 Este 15 Este 0 949.1 1.1 93
2019-09-22 10:00:00 17.5 12 Este 19 Este 0 948.9 1.1 97
2019-09-22 09:00:00 17.3 13 Este 20 Este 0 948.4 0.9 97
2019-09-22 08:00:00 17.1 11 Este 18 Este 0 948 0.2 98
2019-09-22 07:00:00 17.1 11 Este 19 Este 0 947.8 -0.2 99
2019-09-22 06:00:00 17.1 10 Este 22 Este 0 947.5 -0.9 98
2019-09-22 05:00:00 17.2 15 Este 21 Sudeste 0 947.8 -0.7 98
2019-09-22 04:00:00 17.5 16 Sudeste 21 Este 0.4 948 -0.2 97
2019-09-22 03:00:00 17.8 15 Este 26 Este 0 948.4 -0.3 95
2019-09-22 02:00:00 18.1 14 Este 25 Este 0 948.5 -0.8 97
2019-09-22 01:00:00 18 17 Este 26 Este 0 948.2 -0.7 98
2019-09-22 00:00:00 17.9 13 Este 21 Este 3.2 948.7 0.8 98